Helmuth, New York
Current Conditions -  °F | °C
As of 11:53 AM on Friday 31 Oct 2014 (Local Time) from KDKK Reporting Station
Overcast Overcast  
Wind Chill: 44°   Ceiling: 4700
Heat Index: 48°   Visibility: 10mi
Dew Point: 37°   Wind: 8mph
Humidity: 66%   Direction: 190°S
Pressure: 29.93"   Gusts: NA
Location:  42.4964°N, 78.8604°W
Report Text: KDKK 311553Z AUTO 19007KT 10SM BKN047 BKN060 OVC085 09/03 A2993 RMK AO2 SLP137 T00890028
Loading
Personal Weather Stations






























Interactive Weather Map
Tropical Storm Tracking
New forecast layout! Learn more

10-Day Weather Forecast

Advertisements
Track Severe Weather on mobile